Time;durP1;ratioP1;P1;durP2;ratioP2;P2;SDS_P1;SDS_P2;PMS_P1;PMS_P2;Temp;Humidity;BMP_temperature;BMP_pressure;BME280_temperature;BME280_humidity;BME280_pressure;Samples;Min_cycle;Max_cycle;Signal;HPM_P1;HPM_P2
2023/08/22 00:01:34;;;;;;;12.60;11.40;;;;;;;29.27;49.54;100015.00;4318108;33;33461;-70
2023/08/22 00:04:02;;;;;;;11.30;10.20;;;;;;;29.26;49.52;100014.16;4317933;33;34001;-67
2023/08/22 00:06:29;;;;;;;12.65;11.35;;;;;;;29.25;49.51;100011.69;4318174;33;33288;-70
2023/08/22 00:08:57;;;;;;;12.25;10.65;;;;;;;29.25;49.37;100011.69;4317951;33;34670;-68
2023/08/22 00:11:27;;;;;;;12.98;11.57;;;;;;;29.23;49.28;100007.25;4317860;33;34164;-68
2023/08/22 00:13:54;;;;;;;12.68;11.38;;;;;;;29.24;49.21;100010.84;4317810;33;33609;-68
2023/08/22 00:16:23;;;;;;;13.38;11.25;;;;;;;29.24;49.13;100019.09;4304722;33;33402;-69
2023/08/22 00:18:51;;;;;;;12.67;10.80;;;;;;;29.22;49.05;100010.28;4317752;33;34023;-69
2023/08/22 00:21:18;;;;;;;12.00;10.48;;;;;;;29.23;49.04;100009.19;4317920;33;33721;-70
2023/08/22 00:23:46;;;;;;;12.88;11.55;;;;;;;29.22;49.02;100004.78;4317845;33;34100;-68
2023/08/22 00:26:14;;;;;;;12.07;10.77;;;;;;;29.20;48.83;100012.47;4317724;33;34050;-70
2023/08/22 00:28:41;;;;;;;12.68;11.38;;;;;;;29.19;48.83;100008.91;4317902;33;34775;-67
2023/08/22 00:31:09;;;;;;;14.02;10.93;;;;;;;29.18;48.79;100018.19;4317929;33;33924;-69
2023/08/22 00:33:37;;;;;;;11.18;10.05;;;;;;;29.18;48.85;100006.37;4317677;33;34598;-67
2023/08/22 00:36:04;;;;;;;12.10;10.75;;;;;;;29.18;48.89;100011.88;4317784;33;33547;-69
2023/08/22 00:38:32;;;;;;;12.27;10.95;;;;;;;29.17;48.91;100010.22;4317758;33;33890;-66
2023/08/22 00:41:00;;;;;;;13.18;9.93;;;;;;;29.17;48.86;100004.72;4317779;33;33678;-68
2023/08/22 00:43:27;;;;;;;11.82;10.63;;;;;;;29.16;48.93;100006.66;4317811;33;33725;-67
2023/08/22 00:45:56;;;;;;;12.02;10.82;;;;;;;29.15;48.93;99999.50;4317785;33;33541;-70
2023/08/22 00:48:24;;;;;;;12.27;10.98;;;;;;;29.14;48.97;100006.06;4304605;33;33661;-69
2023/08/22 00:50:51;;;;;;;13.13;11.70;;;;;;;29.14;48.98;100010.72;4304592;33;33906;-70
2023/08/22 00:53:19;;;;;;;11.70;10.48;;;;;;;29.13;49.04;100009.91;4317800;33;34579;-68
2023/08/22 00:55:47;;;;;;;13.55;10.63;;;;;;;29.11;49.03;100009.34;4304552;33;34181;-70
2023/08/22 00:58:15;;;;;;;12.60;11.00;;;;;;;29.12;49.03;100007.44;4304439;33;35339;-71
2023/08/22 01:00:42;;;;;;;11.75;10.55;;;;;;;29.11;49.03;100011.28;4292245;33;34007;-68
2023/08/22 01:03:10;;;;;;;12.30;10.63;;;;;;;29.11;49.02;100014.03;4317573;33;34905;-70
2023/08/22 01:05:42;;;;;;;13.88;10.93;;;;;;;29.10;49.03;100015.09;4304548;33;32760;-70
2023/08/22 01:08:30;;;;;;;11.40;10.30;;;;;;;29.07;49.04;100013.69;4304583;33;33985;-69
2023/08/22 01:11:07;;;;;;;14.70;10.65;;;;;;;29.10;48.89;100020.59;4292737;33;34444;-68
2023/08/22 01:13:35;;;;;;;11.60;10.40;;;;;;;29.08;48.79;100014.53;4304385;33;34578;-70
2023/08/22 01:16:02;;;;;;;11.05;9.85;;;;;;;29.04;48.83;100005.97;4296457;33;33133;-69
2023/08/22 01:18:32;;;;;;;12.02;10.65;;;;;;;29.05;48.72;100012.28;4303202;33;34769;-68
2023/08/22 01:21:05;;;;;;;12.40;11.12;;;;;;;29.04;48.65;100008.72;4265918;33;33614;-70
2023/08/22 01:23:33;;;;;;;13.45;10.10;;;;;;;29.03;48.61;100004.31;4289200;33;33779;-69
2023/08/22 01:26:00;;;;;;;11.63;10.43;;;;;;;29.03;48.55;100006.25;4302780;33;33217;-66
2023/08/22 01:28:43;;;;;;;11.88;10.63;;;;;;;29.01;48.51;100003.75;4303098;33;34519;-69
2023/08/22 01:31:22;;;;;;;11.25;10.13;;;;;;;29.01;48.53;100001.00;4279371;33;34676;-68
2023/08/22 01:33:55;;;;;;;11.95;10.68;;;;;;;29.00;48.61;100004.00;4289854;33;33052;-69
2023/08/22 01:36:22;;;;;;;13.15;10.02;;;;;;;28.97;48.65;99995.19;4289878;33;33510;-69
2023/08/22 01:38:51;;;;;;;15.85;10.23;;;;;;;28.97;48.67;99999.88;4278202;33;33834;-69
2023/08/22 01:41:19;;;;;;;12.10;10.13;;;;;;;28.97;48.64;99999.88;4277896;33;34650;-68
2023/08/22 01:43:49;;;;;;;13.30;10.75;;;;;;;28.95;48.67;99991.88;4289772;33;33672;-67
2023/08/22 01:46:17;;;;;;;11.55;10.32;;;;;;;28.94;48.70;99994.84;4289749;33;33036;-67
2023/08/22 01:48:45;;;;;;;12.13;10.25;;;;;;;28.95;48.69;99999.28;4302920;33;33610;-70
2023/08/22 01:51:14;;;;;;;11.20;9.98;;;;;;;28.95;48.74;99996.53;4302662;33;34824;-68
2023/08/22 01:53:43;;;;;;;15.52;10.93;;;;;;;28.93;48.77;99994.03;4302713;33;34707;-69
2023/08/22 01:56:10;;;;;;;12.02;10.18;;;;;;;28.93;48.74;99994.03;4317201;33;33669;-69
2023/08/22 01:58:38;;;;;;;12.82;10.10;;;;;;;28.92;48.71;100002.53;4317033;33;34673;-68
2023/08/22 02:01:09;;;;;;;11.12;9.75;;;;;;;28.91;48.70;99996.22;4303730;33;34067;-67
2023/08/22 02:03:41;;;;;;;11.38;9.85;;;;;;;28.90;48.81;99999.19;4304159;33;33756;-71
2023/08/22 02:06:09;;;;;;;11.75;9.93;;;;;;;28.90;48.81;99996.44;4317135;33;33280;-69
2023/08/22 02:08:38;;;;;;;11.85;10.63;;;;;;;28.90;48.74;99999.19;4304162;33;33851;-67
2023/08/22 02:11:06;;;;;;;12.18;10.98;;;;;;;28.90;48.73;99994.53;4317321;33;33777;-69
2023/08/22 02:13:33;;;;;;;12.02;10.38;;;;;;;28.89;48.69;99992.87;4317192;33;34620;-71
2023/08/22 02:16:01;;;;;;;11.20;9.93;;;;;;;28.88;48.64;99987.66;4317072;33;33521;-70
2023/08/22 02:18:29;;;;;;;11.52;10.32;;;;;;;28.88;48.61;99995.91;4317065;33;33953;-69
2023/08/22 02:20:57;;;;;;;14.13;10.15;;;;;;;28.87;48.62;99997.81;4316992;33;34669;-67
2023/08/22 02:23:26;;;;;;;12.55;10.55;;;;;;;28.87;48.60;99997.00;4317108;33;33501;-67
2023/08/22 02:25:54;;;;;;;;;;;;;;;28.86;48.56;99998.88;4317355;33;34695;-68
2023/08/22 02:28:22;;;;;;;12.52;11.25;;;;;;;28.97;48.24;99992.47;4317220;33;33868;-70
2023/08/22 02:30:56;;;;;;;11.48;10.30;;;;;;;28.88;48.44;99993.16;4317050;33;33650;-71
2023/08/22 02:33:24;;;;;;;14.18;10.95;;;;;;;28.86;48.42;99993.37;4316896;33;33779;-68
2023/08/22 02:35:51;;;;;;;11.38;10.27;;;;;;;28.84;48.47;99992.00;4303743;33;33501;-67
2023/08/22 02:38:19;;;;;;;11.80;10.32;;;;;;;28.83;48.46;99985.69;4317105;33;34649;-69
2023/08/22 02:40:48;;;;;;;13.00;11.00;;;;;;;28.83;48.47;99990.34;4316700;33;34920;-69
2023/08/22 02:43:16;;;;;;;13.80;10.32;;;;;;;28.83;48.54;99984.84;4316781;33;33965;-70
2023/08/22 02:45:45;;;;;;;10.35;9.25;;;;;;;28.81;48.53;99984.28;4316789;33;33718;-70
2023/08/22 02:48:13;;;;;;;11.50;10.30;;;;;;;28.80;48.48;99985.37;4303589;33;33701;-70
2023/08/22 02:50:41;;;;;;;11.55;10.35;;;;;;;28.81;48.42;99989.75;4316796;33;34066;-68
2023/08/22 02:53:11;;;;;;;12.45;10.52;;;;;;;28.80;48.32;99988.09;4316957;33;34557;-67
2023/08/22 02:55:38;;;;;;;11.98;10.32;;;;;;;28.78;48.24;99987.56;4316361;33;34277;-67
2023/08/22 02:58:06;;;;;;;11.05;9.45;;;;;;;28.79;48.21;99986.47;4316551;33;33508;-71
2023/08/22 03:00:35;;;;;;;11.02;9.73;;;;;;;28.78;48.24;99990.28;4316659;33;34758;-67
2023/08/22 03:03:03;;;;;;;12.40;10.50;;;;;;;28.77;48.23;99991.34;4316515;33;33755;-70
2023/08/22 03:05:31;;;;;;;13.32;10.50;;;;;;;28.77;48.24;99994.09;4316786;33;33165;-68
2023/08/22 03:07:59;;;;;;;11.65;10.48;;;;;;;28.76;48.30;99996.03;4316489;33;33625;-69
2023/08/22 03:10:26;;;;;;;12.65;10.27;;;;;;;28.76;48.30;99989.72;4316284;33;33599;-67
2023/08/22 03:12:54;;;;;;;11.35;9.88;;;;;;;28.75;48.35;99990.81;4316751;33;33960;-69
2023/08/22 03:15:22;;;;;;;14.73;10.50;;;;;;;28.75;48.38;99996.28;4318626;33;34139;-67
2023/08/22 03:17:50;;;;;;;13.13;10.80;;;;;;;28.75;48.41;99993.56;4318269;33;33552;-69
2023/08/22 03:20:18;;;;;;;11.90;10.65;;;;;;;28.73;48.36;99989.16;4318469;33;34017;-68
2023/08/22 03:22:45;;;;;;;11.45;10.35;;;;;;;28.72;48.34;99995.72;4305322;33;34465;-67
2023/08/22 03:25:15;;;;;;;11.68;10.55;;;;;;;28.72;48.36;99995.72;4318274;33;34231;-71
2023/08/22 03:27:43;;;;;;;12.02;10.63;;;;;;;28.72;48.37;99995.72;4318448;33;33813;-68
2023/08/22 03:30:11;;;;;;;11.85;10.65;;;;;;;28.72;48.37;99997.62;4318106;33;33982;-71
2023/08/22 03:32:39;;;;;;;12.63;10.75;;;;;;;28.71;48.55;99995.97;4318469;33;34315;-67
2023/08/22 03:35:09;;;;;;;14.10;11.10;;;;;;;28.71;48.54;99996.78;4318405;33;33778;-68
2023/08/22 03:37:37;;;;;;;13.88;10.80;;;;;;;28.71;48.48;99999.53;4318298;33;34131;-70
2023/08/22 03:40:06;;;;;;;11.98;10.27;;;;;;;28.70;48.56;99995.16;4318184;33;33932;-68
2023/08/22 03:42:33;;;;;;;13.90;10.60;;;;;;;28.71;48.56;100001.47;4318454;33;33800;-70
2023/08/22 03:45:01;;;;;;;12.93;10.93;;;;;;;28.71;48.49;99995.97;4318292;33;33121;-68
2023/08/22 03:47:31;;;;;;;16.12;11.68;;;;;;;28.69;48.54;99996.25;4318153;33;34766;-68
2023/08/22 03:49:58;;;;;;;11.80;10.43;;;;;;;28.71;48.57;99995.97;4318115;33;34772;-68
2023/08/22 03:52:26;;;;;;;16.35;10.75;;;;;;;28.70;48.59;99991.56;4318304;33;33675;-67
2023/08/22 03:54:55;;;;;;;12.18;10.88;;;;;;;28.70;48.58;99992.41;4318064;33;34365;-69
2023/08/22 03:57:22;;;;;;;13.27;11.15;;;;;;;28.68;48.63;99991.84;4318194;33;33948;-67
2023/08/22 03:59:50;;;;;;;11.57;10.40;;;;;;;28.69;48.61;99990.75;4318127;33;33970;-69
2023/08/22 04:02:18;;;;;;;12.93;11.00;;;;;;;28.68;48.56;99991.00;4318160;33;34618;-68
2023/08/22 04:04:46;;;;;;;12.70;10.77;;;;;;;28.67;48.59;99998.41;4318064;33;33122;-70
2023/08/22 04:07:13;;;;;;;13.05;10.07;;;;;;;28.67;48.61;99997.56;4318162;33;34509;-67
2023/08/22 04:09:41;;;;;;;12.32;11.00;;;;;;;28.67;48.59;100001.12;4318024;33;34673;-67
2023/08/22 04:12:09;;;;;;;12.25;10.95;;;;;;;28.66;48.55;100004.97;4317976;33;34797;-67
2023/08/22 04:14:36;;;;;;;11.98;10.65;;;;;;;28.67;48.52;100003.06;4317909;33;34332;-66
2023/08/22 04:17:04;;;;;;;11.18;10.05;;;;;;;28.65;48.52;99989.59;4318100;33;33618;-67
2023/08/22 04:19:32;;;;;;;12.60;11.30;;;;;;;28.65;48.57;100003.31;4318219;33;33905;-68
2023/08/22 04:21:59;;;;;;;13.15;10.50;;;;;;;28.65;48.55;100008.81;4317717;33;34124;-66
2023/08/22 04:24:27;;;;;;;11.27;9.85;;;;;;;28.65;48.56;100008.81;4317505;33;33578;-66
2023/08/22 04:26:55;;;;;;;11.95;10.70;;;;;;;28.65;48.53;100006.06;4318190;33;34360;-71
2023/08/22 04:29:23;;;;;;;12.05;10.38;;;;;;;28.65;48.55;100006.06;4304516;33;34703;-69
2023/08/22 04:31:51;;;;;;;13.70;10.82;;;;;;;28.64;48.52;99992.59;4317814;33;34606;-70
2023/08/22 04:34:19;;;;;;;11.25;10.15;;;;;;;28.64;48.52;100000.84;4317963;33;34314;-70
2023/08/22 04:36:47;;;;;;;12.13;10.93;;;;;;;28.64;48.52;100000.84;4317889;33;33601;-69
2023/08/22 04:39:15;;;;;;;12.30;10.63;;;;;;;28.63;48.55;99997.28;4304912;33;34412;-70
2023/08/22 04:41:44;;;;;;;12.57;10.63;;;;;;;28.64;48.59;100006.34;4318124;33;34567;-68
2023/08/22 04:44:14;;;;;;;12.02;10.45;;;;;;;28.66;48.56;100006.91;4305141;33;33192;-67
2023/08/22 04:46:42;;;;;;;12.23;10.95;;;;;;;28.64;48.64;100007.16;4317833;33;33971;-67
2023/08/22 04:49:10;;;;;;;12.27;10.95;;;;;;;28.63;48.68;100000.03;4317613;33;35161;-68
2023/08/22 04:51:37;;;;;;;12.93;11.27;;;;;;;28.64;48.75;100007.16;4304513;33;33843;-68
2023/08/22 04:54:05;;;;;;;14.32;11.12;;;;;;;28.65;48.80;100006.06;4315820;33;33377;-70
2023/08/22 04:56:33;;;;;;;11.88;10.73;;;;;;;28.65;48.83;100008.81;4303108;33;33897;-71
2023/08/22 04:59:02;;;;;;;12.07;10.63;;;;;;;28.67;48.87;100014.88;4303146;33;34659;-70
2023/08/22 05:01:34;;;;;;;12.10;10.80;;;;;;;28.67;48.91;100025.84;4303373;33;34779;-71
2023/08/22 05:04:02;;;;;;;12.68;10.63;;;;;;;28.68;48.93;100029.44;4303248;33;33220;-71
2023/08/22 05:06:29;;;;;;;15.20;11.10;;;;;;;28.68;49.00;100032.19;4303382;33;33868;-70
2023/08/22 05:08:57;;;;;;;12.32;10.77;;;;;;;28.68;48.97;100030.28;4303417;33;33970;-71
2023/08/22 05:11:25;;;;;;;15.07;12.02;;;;;;;28.68;49.04;100027.53;4302748;33;34788;-68
2023/08/22 05:13:52;;;;;;;12.52;11.25;;;;;;;28.69;49.01;100034.69;4303321;33;33471;-71
2023/08/22 05:16:21;;;;;;;12.48;11.18;;;;;;;28.68;49.04;100038.50;4303205;33;34609;-70
2023/08/22 05:18:48;;;;;;;13.05;11.65;;;;;;;28.70;49.07;100035.50;4303197;33;34564;-69
2023/08/22 05:21:16;;;;;;;13.48;11.77;;;;;;;28.69;49.11;100031.09;4303418;33;34453;-70
2023/08/22 05:23:45;;;;;;;11.95;10.65;;;;;;;28.69;49.15;100034.69;4303271;33;33686;-70
2023/08/22 05:26:15;;;;;;;12.73;11.43;;;;;;;28.71;49.11;100042.66;4308811;33;33590;-69
2023/08/22 05:28:44;;;;;;;12.40;11.10;;;;;;;28.72;49.12;100042.41;4303185;33;33609;-66
2023/08/22 05:31:22;;;;;;;12.48;10.77;;;;;;;28.71;49.09;100040.72;4302871;33;33856;-71
2023/08/22 05:33:50;;;;;;;12.60;11.20;;;;;;;28.74;49.01;100036.66;4294056;33;33488;-69
2023/08/22 05:36:18;;;;;;;14.45;11.82;;;;;;;28.73;49.07;100035.00;4302135;33;33880;-70
2023/08/22 05:38:46;;;;;;;13.73;12.05;;;;;;;28.73;49.09;100038.56;4309866;33;33825;-69
2023/08/22 05:41:14;;;;;;;16.08;11.93;;;;;;;28.73;49.23;100027.59;4315337;33;34666;-67
2023/08/22 05:43:42;;;;;;;15.50;11.95;;;;;;;28.74;49.27;100036.66;4317488;33;33508;-67
2023/08/22 05:46:09;;;;;;;13.65;11.50;;;;;;;28.76;49.40;100041.88;4317455;33;34761;-71
2023/08/22 05:48:38;;;;;;;12.37;11.07;;;;;;;28.76;49.46;100036.38;4315213;33;34924;-68
2023/08/22 05:51:06;;;;;;;13.88;11.82;;;;;;;28.77;49.46;100040.78;4317669;33;33511;-68
2023/08/22 05:53:33;;;;;;;13.85;12.05;;;;;;;28.78;49.63;100040.56;4304152;33;34158;-67
2023/08/22 05:56:01;;;;;;;14.98;12.27;;;;;;;28.79;49.55;100038.62;4317287;33;33868;-68
2023/08/22 05:58:29;;;;;;;14.02;12.63;;;;;;;28.79;49.60;100050.44;4317488;33;33796;-66
2023/08/22 06:00:58;;;;;;;13.90;12.40;;;;;;;28.81;49.76;100047.44;4317271;33;33716;-69
2023/08/22 06:03:25;;;;;;;15.63;12.18;;;;;;;28.82;49.65;100051.84;4317313;33;33548;-66
2023/08/22 06:05:53;;;;;;;14.32;12.43;;;;;;;28.82;49.61;100052.69;4317250;33;34703;-67
2023/08/22 06:08:20;;;;;;;15.80;11.93;;;;;;;28.82;49.83;100051.84;4317256;33;33790;-67
2023/08/22 06:10:49;;;;;;;15.60;12.55;;;;;;;28.83;50.02;100057.09;4317544;33;33769;-67
2023/08/22 06:13:16;;;;;;;15.73;13.15;;;;;;;28.83;50.04;100051.59;4317222;33;34271;-66
2023/08/22 06:15:44;;;;;;;16.17;12.65;;;;;;;28.84;50.13;100060.66;4317215;33;33847;-66
2023/08/22 06:18:12;;;;;;;14.82;12.52;;;;;;;28.84;50.13;100057.91;4317266;33;34667;-67
2023/08/22 06:20:40;;;;;;;14.60;13.02;;;;;;;28.84;50.17;100052.41;4317279;33;34598;-67
2023/08/22 06:23:08;;;;;;;22.23;12.95;;;;;;;28.86;50.22;100056.56;4317222;33;33411;-70
2023/08/22 06:25:37;;;;;;;15.48;12.45;;;;;;;28.86;50.32;100048.31;4317195;33;34153;-67
2023/08/22 06:28:04;;;;;;;15.65;11.82;;;;;;;28.87;50.37;100049.16;4303851;33;34709;-67
2023/08/22 06:30:33;;;;;;;14.15;11.70;;;;;;;28.87;50.40;100050.00;4302398;33;33796;-66
2023/08/22 06:33:00;;;;;;;14.35;12.85;;;;;;;28.89;50.49;100052.47;4302511;33;33134;-66
2023/08/22 06:35:28;;;;;;;13.75;12.40;;;;;;;28.88;50.52;100050.81;4302276;33;34688;-67
2023/08/22 06:37:55;;;;;;;14.55;13.05;;;;;;;28.88;50.60;100051.66;4301272;33;35037;-67
2023/08/22 06:40:25;;;;;;;14.15;12.40;;;;;;;28.89;50.71;100047.00;4302388;33;33710;-68
2023/08/22 06:42:52;;;;;;;16.15;12.10;;;;;;;28.91;50.66;100055.78;4311648;33;33410;-67
2023/08/22 06:45:26;;;;;;;14.43;11.88;;;;;;;28.91;50.80;100055.78;4317061;33;34044;-66
2023/08/22 06:47:55;;;;;;;14.85;12.23;;;;;;;28.95;50.69;100051.47;4317956;33;33907;-71
2023/08/22 06:50:22;;;;;;;13.77;12.35;;;;;;;28.94;50.64;100056.09;4318361;33;33948;-71
2023/08/22 06:52:50;;;;;;;16.30;13.18;;;;;;;28.96;50.55;100044.91;4318639;33;33430;-67
2023/08/22 06:55:18;;;;;;;13.90;11.70;;;;;;;28.97;50.43;100054.81;4318679;33;33970;-68
2023/08/22 06:57:45;;;;;;;14.70;12.65;;;;;;;28.97;50.55;100041.06;4318022;33;34766;-69
2023/08/22 07:00:15;;;;;;;13.15;11.85;;;;;;;29.00;50.64;100039.72;4308646;33;33651;-66
2023/08/22 07:02:43;;;;;;;17.00;12.20;;;;;;;29.00;50.64;100042.47;4303923;33;33497;-67
2023/08/22 07:05:13;;;;;;;13.65;12.25;;;;;;;29.02;50.57;100043.03;4303725;33;34580;-67
2023/08/22 07:07:41;;;;;;;;;;;;;;;29.04;50.77;100044.44;4302901;33;33819;-67
2023/08/22 07:10:10;;;;;;;14.05;12.48;;;;;;;29.15;50.53;100048.97;4318172;33;33946;-69
2023/08/22 07:12:38;;;;;;;15.48;12.52;;;;;;;29.08;50.87;100050.25;4318404;33;32975;-67
2023/08/22 07:15:07;;;;;;;14.75;13.18;;;;;;;29.09;51.01;100046.41;4318191;33;33614;-67
2023/08/22 07:17:35;;;;;;;14.65;12.77;;;;;;;29.09;50.93;100047.22;4318047;33;33987;-68
2023/08/22 07:20:03;;;;;;;17.70;13.27;;;;;;;29.10;50.93;100045.31;4318328;33;34220;-67
2023/08/22 07:22:32;;;;;;;14.82;13.32;;;;;;;29.11;51.15;100050.56;4318527;33;34201;-68
2023/08/22 07:25:00;;;;;;;14.60;13.07;;;;;;;29.14;51.17;100049.19;4318231;33;33976;-70
2023/08/22 07:27:27;;;;;;;15.32;12.98;;;;;;;29.16;51.36;100056.12;4317098;33;33754;-68
2023/08/22 07:29:55;;;;;;;16.20;12.85;;;;;;;29.17;51.48;100052.28;4315585;33;33638;-65
2023/08/22 07:32:22;;;;;;;17.90;13.10;;;;;;;29.25;51.87;100048.25;4311173;33;33672;-68
2023/08/22 07:34:50;;;;;;;15.52;13.32;;;;;;;29.22;51.63;100052.31;4303800;33;34125;-68
2023/08/22 07:37:18;;;;;;;14.43;12.73;;;;;;;29.22;51.43;100048.75;4303442;33;34237;-69
2023/08/22 07:39:45;;;;;;;15.40;13.82;;;;;;;29.21;51.33;100050.66;4303335;33;33844;-66
2023/08/22 07:42:13;;;;;;;14.32;12.70;;;;;;;29.21;51.27;100045.16;4303665;33;33596;-66
2023/08/22 07:44:41;;;;;;;14.98;12.55;;;;;;;29.22;51.22;100046.00;4303406;33;33947;-65
2023/08/22 07:47:08;;;;;;;16.45;13.18;;;;;;;29.21;51.23;100039.69;4302249;33;33705;-67
2023/08/22 07:49:36;;;;;;;15.13;13.27;;;;;;;29.21;51.16;100039.69;4303503;33;33916;-69
2023/08/22 07:52:03;;;;;;;16.70;13.05;;;;;;;29.20;51.12;100038.03;4303344;33;33238;-65
2023/08/22 07:54:32;;;;;;;13.88;12.30;;;;;;;29.21;51.09;100036.94;4307725;33;34170;-65
2023/08/22 07:57:00;;;;;;;14.13;12.73;;;;;;;29.21;51.08;100045.16;4304665;33;33673;-66
2023/08/22 07:59:45;;;;;;;13.68;12.27;;;;;;;29.21;51.08;100036.09;4317169;33;34858;-66
2023/08/22 08:02:12;;;;;;;14.63;12.75;;;;;;;29.22;51.05;100040.50;4317640;33;33347;-65
2023/08/22 08:04:40;;;;;;;15.52;13.75;;;;;;;29.21;51.09;100047.09;4317895;33;34035;-67
2023/08/22 08:07:08;;;;;;;14.27;12.77;;;;;;;29.21;51.11;100045.16;4317698;33;34376;-68
2023/08/22 08:09:35;;;;;;;14.77;13.25;;;;;;;29.21;51.10;100045.16;4304493;33;33999;-69
2023/08/22 08:12:04;;;;;;;14.55;12.70;;;;;;;29.21;51.13;100049.84;4303261;33;33415;-66
2023/08/22 08:14:32;;;;;;;14.98;13.32;;;;;;;29.22;51.16;100040.50;4303208;33;33372;-67
2023/08/22 08:17:00;;;;;;;15.25;12.85;;;;;;;29.22;51.15;100040.50;4302345;33;33892;-67
2023/08/22 08:19:28;;;;;;;16.23;13.50;;;;;;;29.21;51.15;100042.41;4314187;33;33728;-66
2023/08/22 08:21:56;;;;;;;14.18;12.80;;;;;;;29.22;51.18;100052.31;4317581;33;33389;-66
2023/08/22 08:24:23;;;;;;;16.35;12.98;;;;;;;29.22;51.18;100051.50;4318031;33;34123;-72
2023/08/22 08:27:32;;;;;;;14.55;12.60;;;;;;;29.23;51.13;100042.97;4309396;33;33442;-72
2023/08/22 08:29:59;;;;;;;15.55;12.93;;;;;;;29.24;51.04;100052.09;4304692;33;34112;-72
2023/08/22 08:32:48;;;;;;;13.73;12.30;;;;;;;29.23;51.03;100053.97;4304438;33;33663;-73
2023/08/22 08:35:36;;;;;;;15.18;13.57;;;;;;;29.25;50.98;100044.66;4306468;33;33505;-72
2023/08/22 08:38:44;;;;;;;16.35;12.80;;;;;;;29.23;50.98;100047.66;4317752;33;34790;-72
2023/08/22 08:41:33;;;;;;;18.87;13.70;;;;;;;29.22;50.96;100041.31;4296781;33;34334;-72
2023/08/22 08:44:22;;;;;;;16.37;12.68;;;;;;;29.22;50.96;100049.56;4284545;33;32310;-72
2023/08/22 08:46:50;;;;;;;14.27;12.82;;;;;;;29.23;50.93;100042.16;4292856;33;34812;-72
2023/08/22 08:49:38;;;;;;;14.27;12.77;;;;;;;29.22;50.91;100040.50;4296881;33;33069;-72
2023/08/22 08:52:26;;;;;;;16.92;12.88;;;;;;;29.21;50.92;100042.41;4306172;33;33515;-72
2023/08/22 08:54:56;;;;;;;15.73;12.68;;;;;;;29.21;50.88;100039.69;4292709;33;33417;-72
2023/08/22 08:57:43;;;;;;;14.15;12.45;;;;;;;29.20;50.87;100040.78;4284031;33;32871;-72
2023/08/22 09:00:39;;;;;;;13.40;11.90;;;;;;;29.21;50.83;100036.09;4307472;33;34541;-72
2023/08/22 09:03:08;;;;;;;14.45;12.93;;;;;;;29.21;50.79;100041.59;4293175;33;33905;-72
2023/08/22 09:05:49;;;;;;;14.10;11.68;;;;;;;29.19;50.79;100035.50;4305856;33;33417;-72
2023/08/22 09:08:37;;;;;;;14.80;13.07;;;;;;;29.19;50.79;100033.63;4306895;33;34496;-72
2023/08/22 09:11:07;;;;;;;12.45;11.15;;;;;;;29.19;50.75;100033.63;4304539;33;33916;-72
2023/08/22 09:13:55;;;;;;;13.90;12.50;;;;;;;29.18;50.74;100029.19;4294338;33;33767;-70
2023/08/22 09:16:25;;;;;;;13.77;12.18;;;;;;;29.19;50.71;100030.03;4317819;33;34370;-73
2023/08/22 09:18:58;;;;;;;13.85;12.07;;;;;;;29.19;50.69;100021.78;4316230;33;33741;-72
2023/08/22 09:21:29;;;;;;;13.73;12.30;;;;;;;29.18;50.69;100023.69;4291727;33;33828;-72
2023/08/22 09:24:17;;;;;;;13.68;12.25;;;;;;;29.18;50.65;100020.13;4284162;33;32977;-73
2023/08/22 09:27:08;;;;;;;13.83;11.77;;;;;;;29.20;50.59;100017.97;4306404;33;34450;-71
2023/08/22 09:30:04;;;;;;;13.13;11.52;;;;;;;29.19;50.55;100016.28;4307105;33;34634;-72
2023/08/22 09:32:34;;;;;;;13.45;12.15;;;;;;;29.18;50.55;100015.44;4281746;33;33079;-72
2023/08/22 09:35:02;;;;;;;13.02;11.50;;;;;;;29.19;50.55;100021.78;4303515;33;34225;-73
2023/08/22 09:37:41;;;;;;;14.45;11.63;;;;;;;29.17;50.54;100011.06;4303661;33;33499;-73
2023/08/22 09:40:28;;;;;;;12.73;11.35;;;;;;;29.17;50.54;100008.31;4309590;33;34527;-77
2023/08/22 09:43:00;;;;;;;12.32;10.98;;;;;;;29.18;50.49;100006.37;4292060;33;33960;-74
2023/08/22 09:45:32;;;;;;;13.32;10.88;;;;;;;29.18;50.50;100009.13;4289696;33;33743;-70
2023/08/22 09:47:59;;;;;;;14.52;12.40;;;;;;;29.17;50.52;100005.56;4315845;33;33487;-72
2023/08/22 09:50:28;;;;;;;14.00;12.05;;;;;;;29.19;50.72;99984.16;4282020;33;33613;-72
2023/08/22 09:52:56;;;;;;;13.18;11.75;;;;;;;29.18;51.07;99978.91;4304283;33;33267;-72
2023/08/22 09:55:24;;;;;;;13.00;11.60;;;;;;;29.18;51.30;99973.41;4292303;33;33701;-71
2023/08/22 09:57:51;;;;;;;13.07;11.68;;;;;;;29.19;51.47;99978.66;4274967;33;175947;-72
2023/08/22 10:00:19;;;;;;;15.20;11.90;;;;;;;29.20;51.53;99972.06;4303977;33;34831;-66
2023/08/22 10:02:47;;;;;;;12.55;11.25;;;;;;;29.22;51.54;99966.31;4316888;33;34435;-63
2023/08/22 10:05:15;;;;;;;13.85;11.52;;;;;;;29.22;51.57;99972.63;4303904;33;33661;-65
2023/08/22 10:07:42;;;;;;;17.98;11.93;;;;;;;29.23;51.62;99971.53;4291194;33;33449;-76
2023/08/22 10:10:10;;;;;;;12.90;11.60;;;;;;;29.25;51.62;99967.72;4315163;33;33813;-69
2023/08/22 10:12:38;;;;;;;13.32;11.93;;;;;;;29.26;51.67;99967.44;4303463;33;33675;-71
2023/08/22 10:15:06;;;;;;;12.85;11.52;;;;;;;29.27;51.69;99960.84;4317200;33;34499;-72
2023/08/22 10:17:34;;;;;;;16.52;11.82;;;;;;;29.29;51.67;99971.59;4301361;33;32960;-65
2023/08/22 10:20:05;;;;;;;14.35;12.10;;;;;;;29.29;51.71;99966.94;4301377;33;33451;-62
2023/08/22 10:22:33;;;;;;;14.32;12.55;;;;;;;29.30;51.77;99963.09;4300892;33;34794;-64
2023/08/22 10:25:02;;;;;;;13.55;12.15;;;;;;;29.31;51.80;99956.50;4302418;33;33955;-64
2023/08/22 10:27:30;;;;;;;14.07;11.50;;;;;;;29.33;51.80;99954.31;4315476;33;34021;-79
2023/08/22 10:30:12;;;;;;;14.35;11.30;;;;;;;29.35;51.77;99945.81;4314508;33;33811;-69
2023/08/22 10:32:40;;;;;;;14.40;11.85;;;;;;;29.38;51.66;99957.13;4311126;33;34001;-71
2023/08/22 10:35:14;;;;;;;13.52;11.90;;;;;;;29.37;51.76;99954.59;4302684;33;33655;-65
2023/08/22 10:37:49;;;;;;;13.62;12.20;;;;;;;29.36;51.78;99955.69;4315247;33;33401;-64
2023/08/22 10:40:30;;;;;;;13.45;12.05;;;;;;;29.40;51.75;99957.66;4293486;33;34016;-69
2023/08/22 10:43:08;;;;;;;13.02;11.65;;;;;;;29.40;51.90;99952.16;4289310;33;33437;-66
2023/08/22 10:45:39;;;;;;;;;;;;;;;29.39;52.08;99941.44;4298617;33;33817;-68
2023/08/22 10:48:13;;;;;;;12.95;11.70;;;;;;;29.52;51.96;99943.75;4303240;33;32668;-70
2023/08/22 10:50:42;;;;;;;15.50;12.27;;;;;;;29.43;52.37;99943.41;4315683;33;33924;-79
2023/08/22 10:53:28;;;;;;;14.30;11.65;;;;;;;29.44;52.45;99944.22;4278465;33;34245;-64
2023/08/22 10:55:56;;;;;;;13.55;12.15;;;;;;;29.48;52.43;99945.38;4316485;33;33852;-67
2023/08/22 10:58:37;;;;;;;17.80;11.93;;;;;;;29.45;52.50;99946.72;4290791;33;33724;-66
2023/08/22 11:01:14;;;;;;;12.77;11.27;;;;;;;29.48;52.41;99942.63;4303208;33;33441;-64
2023/08/22 11:03:43;;;;;;;14.87;11.75;;;;;;;29.49;52.30;99949.75;4303231;33;33841;-64
2023/08/22 11:06:11;;;;;;;12.20;10.90;;;;;;;29.48;52.28;99950.88;4302961;33;34751;-63
2023/08/22 11:08:40;;;;;;;12.37;11.12;;;;;;;29.48;52.19;99940.69;4289965;33;33756;-66
2023/08/22 11:11:08;;;;;;;15.05;11.57;;;;;;;29.49;52.11;99947.00;4288922;33;34668;-64
2023/08/22 11:13:37;;;;;;;13.35;11.57;;;;;;;29.51;51.97;99961.31;4312184;33;33723;-65
2023/08/22 11:16:11;;;;;;;13.20;11.90;;;;;;;29.52;51.91;99942.88;4303053;33;33746;-65
2023/08/22 11:18:39;;;;;;;14.77;11.55;;;;;;;29.54;51.82;99960.78;4277687;33;33447;-65
2023/08/22 11:21:07;;;;;;;13.15;11.73;;;;;;;29.54;51.76;99944.31;4290512;33;34155;-64
2023/08/22 11:23:35;;;;;;;12.05;10.85;;;;;;;29.55;51.69;99942.41;4292319;33;34747;-66
2023/08/22 11:26:06;;;;;;;14.32;11.68;;;;;;;29.55;51.60;99937.72;4276445;33;32787;-65
2023/08/22 11:28:35;;;;;;;12.98;11.18;;;;;;;29.57;51.51;99935.56;4288406;33;33275;-65